deformed-offering

Current conditions - KSJC (San Jose International)


Coded METAR: 2017/09/26 17:53 KSJC 261753Z 32006KT 10SM FEW110 27/08 A2984 RMK AO2 SLP105 T02670078 10267 20144 58005

Weather Report

Report issued: Tue 26th Sep at 10:53 PDT

Wind: light breeze from the Northwest (320 degrees) at 6 knots (7 mph, 11 kph, Force 2)
Visibility: 10 statute miles
Cloud: a few clouds at 11000 feet
Temperature: 81F / 27C
Dewpoint: 46F / 8C
Humidity: 30%
Pressure: 29.84 inches of mercury

Current conditions - KNUQ (Moffett NAS)


Coded METAR: 2017/09/26 16:56 KNUQ 261656Z 31003KT 10SM CLR 23/13 A2987 RMK AO2 SLP117 T02280128

Weather Report

Report issued: Tue 26th Sep at 09:56 PDT

Wind: light air from the Northwest (310 degrees) at 3 knots (3 mph, 6 kph, Force 1)
Visibility: 10 statute miles
Cloud: Sky clear
Temperature: 73F / 23C
Dewpoint: 55F / 13C
Humidity: 53%
Pressure: 29.87 inches of mercury

Current conditions - KRHV (Reid-Hillview Airport - San Jose)


Coded METAR: 2017/09/26 17:53 KRHV 261753Z VRB04KT 10SM SKC 25/06 A2987

Weather Report

Report issued: Tue 26th Sep at 10:53 PDT

Wind: variable light breeze at 4 knots (5 mph, 7 kph, Force 2)
Visibility: 10 statute miles
Cloud: Sky clear
Temperature: 77F / 25C
Dewpoint: 43F / 6C
Humidity: 30%
Pressure: 29.87 inches of mercury

Current conditions - KPAO (Palo Alto Airport)


Coded METAR: 2017/09/26 17:47 KPAO 261747Z 00000KT 10SM SKC 25/12 A2986

Weather Report

Report issued: Tue 26th Sep at 10:47 PDT

Wind: calm 0 knots (0 mph, 0 kph, Force 0)
Visibility: 10 statute miles
Cloud: Sky clear
Temperature: 77F / 25C
Dewpoint: 54F / 12C
Humidity: 44%
Pressure: 29.86 inches of mercury

 

deformed-offering